sensor_id;sensor_type;location;lat;lon;timestamp;temperature;humidity
38167;DHT22;23980;51.902;12.832;2022-09-23T00:02:45;7.20;59.40
38167;DHT22;23980;51.902;12.832;2022-09-23T00:07:47;7.10;59.60
38167;DHT22;23980;51.902;12.832;2022-09-23T00:12:48;7.10;59.60
38167;DHT22;23980;51.902;12.832;2022-09-23T00:17:57;7.00;59.50
38167;DHT22;23980;51.902;12.832;2022-09-23T00:23:03;7.00;59.80
38167;DHT22;23980;51.902;12.832;2022-09-23T00:28:04;7.00;59.90
38167;DHT22;23980;51.902;12.832;2022-09-23T00:33:17;7.00;59.70
38167;DHT22;23980;51.902;12.832;2022-09-23T00:38:17;6.90;59.90
38167;DHT22;23980;51.902;12.832;2022-09-23T00:43:19;6.90;59.70
38167;DHT22;23980;51.902;12.832;2022-09-23T00:48:19;6.90;59.60
38167;DHT22;23980;51.902;12.832;2022-09-23T00:53:22;6.80;59.60
38167;DHT22;23980;51.902;12.832;2022-09-23T00:58:30;6.80;59.60
38167;DHT22;23980;51.902;12.832;2022-09-23T01:03:32;6.80;59.70
38167;DHT22;23980;51.902;12.832;2022-09-23T01:08:32;6.70;59.60
38167;DHT22;23980;51.902;12.832;2022-09-23T01:30:14;6.60;59.80
38167;DHT22;23980;51.902;12.832;2022-09-23T01:40:22;6.40;59.50
38167;DHT22;23980;51.902;12.832;2022-09-23T01:45:34;6.40;59.60
38167;DHT22;23980;51.902;12.832;2022-09-23T01:51:07;6.30;59.70
38167;DHT22;23980;51.902;12.832;2022-09-23T01:56:19;6.30;59.80
38167;DHT22;23980;51.902;12.832;2022-09-23T02:01:38;6.30;59.60
38167;DHT22;23980;51.902;12.832;2022-09-23T02:06:43;6.20;59.70
38167;DHT22;23980;51.902;12.832;2022-09-23T02:11:47;6.20;59.60
38167;DHT22;23980;51.902;12.832;2022-09-23T02:16:51;6.10;59.50
38167;DHT22;23980;51.902;12.832;2022-09-23T02:22:08;6.10;59.60
38167;DHT22;23980;51.902;12.832;2022-09-23T02:43:10;6.00;59.90
38167;DHT22;23980;51.902;12.832;2022-09-23T02:48:25;5.90;60.00
38167;DHT22;23980;51.902;12.832;2022-09-23T02:53:28;5.90;59.90
38167;DHT22;23980;51.902;12.832;2022-09-23T02:58:30;5.90;59.60
38167;DHT22;23980;51.902;12.832;2022-09-23T03:03:44;5.80;59.50
38167;DHT22;23980;51.902;12.832;2022-09-23T03:15:07;5.80;59.70
38167;DHT22;23980;51.902;12.832;2022-09-23T03:20:27;5.70;59.50
38167;DHT22;23980;51.902;12.832;2022-09-23T03:25:37;5.70;59.60
38167;DHT22;23980;51.902;12.832;2022-09-23T03:30:45;5.60;59.50
38167;DHT22;23980;51.902;12.832;2022-09-23T03:36:03;5.60;59.70
38167;DHT22;23980;51.902;12.832;2022-09-23T03:41:41;5.50;60.10
38167;DHT22;23980;51.902;12.832;2022-09-23T03:46:44;5.40;59.60
38167;DHT22;23980;51.902;12.832;2022-09-23T03:51:49;5.40;59.40
38167;DHT22;23980;51.902;12.832;2022-09-23T03:56:58;5.30;59.40
38167;DHT22;23980;51.902;12.832;2022-09-23T04:01:59;5.30;59.60
38167;DHT22;23980;51.902;12.832;2022-09-23T04:07:02;5.30;59.30
38167;DHT22;23980;51.902;12.832;2022-09-23T04:12:04;5.30;59.30
38167;DHT22;23980;51.902;12.832;2022-09-23T04:17:05;5.20;59.40
38167;DHT22;23980;51.902;12.832;2022-09-23T04:22:07;5.20;59.40
38167;DHT22;23980;51.902;12.832;2022-09-23T04:27:07;5.10;59.90
38167;DHT22;23980;51.902;12.832;2022-09-23T04:32:08;5.10;59.40
38167;DHT22;23980;51.902;12.832;2022-09-23T04:37:09;5.00;59.40
38167;DHT22;23980;51.902;12.832;2022-09-23T04:42:10;5.00;59.60
38167;DHT22;23980;51.902;12.832;2022-09-23T04:47:10;5.00;59.60
38167;DHT22;23980;51.902;12.832;2022-09-23T04:52:14;5.00;59.60
38167;DHT22;23980;51.902;12.832;2022-09-23T04:57:18;5.00;59.70
38167;DHT22;23980;51.902;12.832;2022-09-23T05:02:41;5.00;59.80
38167;DHT22;23980;51.902;12.832;2022-09-23T05:07:42;5.00;60.00
38167;DHT22;23980;51.902;12.832;2022-09-23T05:12:43;5.00;59.80
38167;DHT22;23980;51.902;12.832;2022-09-23T05:17:44;5.00;59.90
38167;DHT22;23980;51.902;12.832;2022-09-23T05:22:53;5.00;59.80
38167;DHT22;23980;51.902;12.832;2022-09-23T05:27:55;4.90;60.10
38167;DHT22;23980;51.902;12.832;2022-09-23T05:33:10;5.00;59.90
38167;DHT22;23980;51.902;12.832;2022-09-23T05:38:10;5.00;60.20
38167;DHT22;23980;51.902;12.832;2022-09-23T05:43:21;5.00;60.10
38167;DHT22;23980;51.902;12.832;2022-09-23T05:48:22;5.10;60.20
38167;DHT22;23980;51.902;12.832;2022-09-23T05:53:22;5.10;60.20
38167;DHT22;23980;51.902;12.832;2022-09-23T05:58:23;5.10;60.20
38167;DHT22;23980;51.902;12.832;2022-09-23T06:03:24;5.20;60.30
38167;DHT22;23980;51.902;12.832;2022-09-23T06:08:25;5.20;60.30
38167;DHT22;23980;51.902;12.832;2022-09-23T06:13:35;5.30;60.40
38167;DHT22;23980;51.902;12.832;2022-09-23T06:18:43;5.40;60.80
38167;DHT22;23980;51.902;12.832;2022-09-23T06:23:45;5.50;60.70
38167;DHT22;23980;51.902;12.832;2022-09-23T06:28:47;5.60;60.80
38167;DHT22;23980;51.902;12.832;2022-09-23T06:33:48;5.70;60.90
38167;DHT22;23980;51.902;12.832;2022-09-23T06:38:49;5.80;61.00
38167;DHT22;23980;51.902;12.832;2022-09-23T06:43:56;5.90;61.00
38167;DHT22;23980;51.902;12.832;2022-09-23T06:48:56;6.00;61.30
38167;DHT22;23980;51.902;12.832;2022-09-23T06:53:57;6.10;61.20
38167;DHT22;23980;51.902;12.832;2022-09-23T06:58:58;6.30;61.20
38167;DHT22;23980;51.902;12.832;2022-09-23T07:03:59;6.40;61.30
38167;DHT22;23980;51.902;12.832;2022-09-23T07:09:00;6.60;61.40
38167;DHT22;23980;51.902;12.832;2022-09-23T07:14:03;6.70;61.40
38167;DHT22;23980;51.902;12.832;2022-09-23T07:19:04;6.80;61.40
38167;DHT22;23980;51.902;12.832;2022-09-23T07:24:05;7.00;61.50
38167;DHT22;23980;51.902;12.832;2022-09-23T07:29:10;7.10;61.50
38167;DHT22;23980;51.902;12.832;2022-09-23T07:34:11;7.30;61.60
38167;DHT22;23980;51.902;12.832;2022-09-23T07:39:12;7.50;61.80
38167;DHT22;23980;51.902;12.832;2022-09-23T07:44:14;7.60;61.80
38167;DHT22;23980;51.902;12.832;2022-09-23T07:49:15;7.80;61.90
38167;DHT22;23980;51.902;12.832;2022-09-23T07:54:16;8.00;62.00
38167;DHT22;23980;51.902;12.832;2022-09-23T07:59:18;8.20;62.10
38167;DHT22;23980;51.902;12.832;2022-09-23T08:04:25;8.40;62.20
38167;DHT22;23980;51.902;12.832;2022-09-23T08:09:31;8.60;62.30
38167;DHT22;23980;51.902;12.832;2022-09-23T08:14:32;8.80;62.20
38167;DHT22;23980;51.902;12.832;2022-09-23T08:19:33;9.00;62.30
38167;DHT22;23980;51.902;12.832;2022-09-23T08:24:33;9.20;62.40
38167;DHT22;23980;51.902;12.832;2022-09-23T08:29:34;9.40;62.40
38167;DHT22;23980;51.902;12.832;2022-09-23T08:34:43;9.50;62.40
38167;DHT22;23980;51.902;12.832;2022-09-23T08:39:43;9.70;62.60
38167;DHT22;23980;51.902;12.832;2022-09-23T08:44:50;10.00;62.40
38167;DHT22;23980;51.902;12.832;2022-09-23T08:50:20;10.20;62.60
38167;DHT22;23980;51.902;12.832;2022-09-23T08:55:26;10.50;62.60
38167;DHT22;23980;51.902;12.832;2022-09-23T09:00:35;10.80;62.40
38167;DHT22;23980;51.902;12.832;2022-09-23T09:05:40;11.00;62.70
38167;DHT22;23980;51.902;12.832;2022-09-23T09:10:42;11.20;62.70
38167;DHT22;23980;51.902;12.832;2022-09-23T09:21:14;11.80;63.40
38167;DHT22;23980;51.902;12.832;2022-09-23T09:26:20;12.10;63.10
38167;DHT22;23980;51.902;12.832;2022-09-23T09:31:37;12.60;63.30
38167;DHT22;23980;51.902;12.832;2022-09-23T09:36:46;13.10;64.10
38167;DHT22;23980;51.902;12.832;2022-09-23T09:41:50;13.80;63.80
38167;DHT22;23980;51.902;12.832;2022-09-23T09:47:15;14.90;64.80
38167;DHT22;23980;51.902;12.832;2022-09-23T10:16:17;16.50;67.70
38167;DHT22;23980;51.902;12.832;2022-09-23T10:32:24;19.70;65.60
38167;DHT22;23980;51.902;12.832;2022-09-23T10:37:37;23.50;62.40
38167;DHT22;23980;51.902;12.832;2022-09-23T12:09:26;30.40;57.70
38167;DHT22;23980;51.902;12.832;2022-09-23T13:33:10;26.70;57.90
38167;DHT22;23980;51.902;12.832;2022-09-23T13:38:21;24.20;53.60
38167;DHT22;23980;51.902;12.832;2022-09-23T13:43:33;23.60;53.20
38167;DHT22;23980;51.902;12.832;2022-09-23T13:48:35;23.10;52.90
38167;DHT22;23980;51.902;12.832;2022-09-23T13:53:36;22.70;52.90
38167;DHT22;23980;51.902;12.832;2022-09-23T13:58:40;22.30;53.00
38167;DHT22;23980;51.902;12.832;2022-09-23T14:03:40;21.90;53.50
38167;DHT22;23980;51.902;12.832;2022-09-23T14:08:45;21.70;54.10
38167;DHT22;23980;51.902;12.832;2022-09-23T14:13:49;21.70;55.20
38167;DHT22;23980;51.902;12.832;2022-09-23T14:18:58;21.60;54.70
38167;DHT22;23980;51.902;12.832;2022-09-23T14:24:17;21.40;54.40
38167;DHT22;23980;51.902;12.832;2022-09-23T14:29:25;21.40;55.30
38167;DHT22;23980;51.902;12.832;2022-09-23T14:34:43;21.20;55.20
38167;DHT22;23980;51.902;12.832;2022-09-23T14:39:49;21.20;56.00
38167;DHT22;23980;51.902;12.832;2022-09-23T14:44:50;21.20;55.90
38167;DHT22;23980;51.902;12.832;2022-09-23T14:49:52;21.20;55.90
38167;DHT22;23980;51.902;12.832;2022-09-23T14:55:16;21.20;55.80
38167;DHT22;23980;51.902;12.832;2022-09-23T15:00:19;21.00;55.60
38167;DHT22;23980;51.902;12.832;2022-09-23T15:05:21;20.90;55.80
38167;DHT22;23980;51.902;12.832;2022-09-23T15:10:29;20.70;55.70
38167;DHT22;23980;51.902;12.832;2022-09-23T15:15:31;20.60;55.70
38167;DHT22;23980;51.902;12.832;2022-09-23T15:20:33;20.40;55.80
38167;DHT22;23980;51.902;12.832;2022-09-23T15:25:39;20.40;56.00
38167;DHT22;23980;51.902;12.832;2022-09-23T15:30:40;20.30;55.90
38167;DHT22;23980;51.902;12.832;2022-09-23T15:35:45;20.30;55.90
38167;DHT22;23980;51.902;12.832;2022-09-23T15:40:47;20.20;55.70
38167;DHT22;23980;51.902;12.832;2022-09-23T15:45:54;20.00;55.30
38167;DHT22;23980;51.902;12.832;2022-09-23T15:51:05;19.80;55.20
38167;DHT22;23980;51.902;12.832;2022-09-23T15:56:11;19.50;55.30
38167;DHT22;23980;51.902;12.832;2022-09-23T16:01:29;19.30;55.40
38167;DHT22;23980;51.902;12.832;2022-09-23T16:06:31;19.00;55.40
38167;DHT22;23980;51.902;12.832;2022-09-23T16:11:34;18.80;55.30
38167;DHT22;23980;51.902;12.832;2022-09-23T16:16:44;18.60;55.50
38167;DHT22;23980;51.902;12.832;2022-09-23T16:21:47;18.30;55.60
38167;DHT22;23980;51.902;12.832;2022-09-23T16:26:47;18.10;55.50
38167;DHT22;23980;51.902;12.832;2022-09-23T16:31:48;17.90;55.30
38167;DHT22;23980;51.902;12.832;2022-09-23T16:36:54;17.60;55.40
38167;DHT22;23980;51.902;12.832;2022-09-23T16:41:56;17.40;55.60
38167;DHT22;23980;51.902;12.832;2022-09-23T16:47:04;17.10;55.40
38167;DHT22;23980;51.902;12.832;2022-09-23T16:52:05;16.90;55.60
38167;DHT22;23980;51.902;12.832;2022-09-23T16:57:05;16.70;55.40
38167;DHT22;23980;51.902;12.832;2022-09-23T17:02:09;16.50;55.50
38167;DHT22;23980;51.902;12.832;2022-09-23T17:07:31;16.30;55.60
38167;DHT22;23980;51.902;12.832;2022-09-23T17:12:32;16.10;55.60
38167;DHT22;23980;51.902;12.832;2022-09-23T17:17:44;15.90;56.10
38167;DHT22;23980;51.902;12.832;2022-09-23T17:22:45;15.70;56.00
38167;DHT22;23980;51.902;12.832;2022-09-23T17:27:49;15.50;55.80
38167;DHT22;23980;51.902;12.832;2022-09-23T17:32:49;15.30;55.90
38167;DHT22;23980;51.902;12.832;2022-09-23T17:37:50;15.10;55.90
38167;DHT22;23980;51.902;12.832;2022-09-23T17:43:12;14.90;56.00
38167;DHT22;23980;51.902;12.832;2022-09-23T17:48:20;14.70;56.60
38167;DHT22;23980;51.902;12.832;2022-09-23T17:53:35;14.60;56.40
38167;DHT22;23980;51.902;12.832;2022-09-23T17:58:36;14.40;56.40
38167;DHT22;23980;51.902;12.832;2022-09-23T18:03:45;14.30;56.20
38167;DHT22;23980;51.902;12.832;2022-09-23T18:08:48;14.20;56.60
38167;DHT22;23980;51.902;12.832;2022-09-23T18:13:51;14.10;56.30
38167;DHT22;23980;51.902;12.832;2022-09-23T18:18:56;14.00;56.50
38167;DHT22;23980;51.902;12.832;2022-09-23T18:23:58;13.90;56.60
38167;DHT22;23980;51.902;12.832;2022-09-23T18:29:01;13.80;56.50
38167;DHT22;23980;51.902;12.832;2022-09-23T18:34:10;13.70;56.40
38167;DHT22;23980;51.902;12.832;2022-09-23T18:39:18;13.70;56.70
38167;DHT22;23980;51.902;12.832;2022-09-23T18:44:44;13.60;56.60
38167;DHT22;23980;51.902;12.832;2022-09-23T18:49:46;13.60;57.10
38167;DHT22;23980;51.902;12.832;2022-09-23T18:55:05;13.50;56.60
38167;DHT22;23980;51.902;12.832;2022-09-23T19:00:18;13.40;56.60
38167;DHT22;23980;51.902;12.832;2022-09-23T19:05:25;13.40;56.90
38167;DHT22;23980;51.902;12.832;2022-09-23T19:10:28;13.40;56.90
38167;DHT22;23980;51.902;12.832;2022-09-23T19:15:38;13.40;56.90
38167;DHT22;23980;51.902;12.832;2022-09-23T19:20:58;13.40;57.10
38167;DHT22;23980;51.902;12.832;2022-09-23T19:26:05;13.30;57.00
38167;DHT22;23980;51.902;12.832;2022-09-23T19:31:11;13.30;56.80
38167;DHT22;23980;51.902;12.832;2022-09-23T19:36:21;13.30;56.90
38167;DHT22;23980;51.902;12.832;2022-09-23T19:41:39;13.20;56.70
38167;DHT22;23980;51.902;12.832;2022-09-23T19:46:41;13.20;56.80
38167;DHT22;23980;51.902;12.832;2022-09-23T19:51:45;13.10;56.80
38167;DHT22;23980;51.902;12.832;2022-09-23T19:56:47;13.10;56.70
38167;DHT22;23980;51.902;12.832;2022-09-23T20:01:49;13.00;56.80
38167;DHT22;23980;51.902;12.832;2022-09-23T20:07:06;13.00;56.90
38167;DHT22;23980;51.902;12.832;2022-09-23T20:12:08;13.00;57.30
38167;DHT22;23980;51.902;12.832;2022-09-23T20:17:15;12.90;56.80
38167;DHT22;23980;51.902;12.832;2022-09-23T20:22:16;12.90;57.00
38167;DHT22;23980;51.902;12.832;2022-09-23T20:27:31;12.90;56.80
38167;DHT22;23980;51.902;12.832;2022-09-23T20:32:42;12.90;56.90
38167;DHT22;23980;51.902;12.832;2022-09-23T20:37:53;12.80;57.10
38167;DHT22;23980;51.902;12.832;2022-09-23T20:42:54;12.80;57.20
38167;DHT22;23980;51.902;12.832;2022-09-23T20:47:56;12.80;56.90
38167;DHT22;23980;51.902;12.832;2022-09-23T20:52:59;12.80;57.00
38167;DHT22;23980;51.902;12.832;2022-09-23T20:57:59;12.70;57.00
38167;DHT22;23980;51.902;12.832;2022-09-23T21:03:02;12.70;57.00
38167;DHT22;23980;51.902;12.832;2022-09-23T21:08:04;12.70;57.10
38167;DHT22;23980;51.902;12.832;2022-09-23T21:13:06;12.60;57.00
38167;DHT22;23980;51.902;12.832;2022-09-23T21:18:07;12.60;57.10
38167;DHT22;23980;51.902;12.832;2022-09-23T21:23:08;12.60;57.10
38167;DHT22;23980;51.902;12.832;2022-09-23T21:28:17;12.60;57.20
38167;DHT22;23980;51.902;12.832;2022-09-23T21:33:18;12.60;57.50
38167;DHT22;23980;51.902;12.832;2022-09-23T21:38:18;12.50;57.10
38167;DHT22;23980;51.902;12.832;2022-09-23T21:43:19;12.50;57.20
38167;DHT22;23980;51.902;12.832;2022-09-23T21:48:20;12.50;57.20
38167;DHT22;23980;51.902;12.832;2022-09-23T21:53:20;12.50;57.20
38167;DHT22;23980;51.902;12.832;2022-09-23T21:58:23;12.40;57.20
38167;DHT22;23980;51.902;12.832;2022-09-23T22:03:26;12.40;57.30
38167;DHT22;23980;51.902;12.832;2022-09-23T22:08:38;12.40;57.30
38167;DHT22;23980;51.902;12.832;2022-09-23T22:13:39;12.30;57.60
38167;DHT22;23980;51.902;12.832;2022-09-23T22:18:41;12.30;57.30
38167;DHT22;23980;51.902;12.832;2022-09-23T22:23:53;12.30;57.40
38167;DHT22;23980;51.902;12.832;2022-09-23T22:29:04;12.30;57.60
38167;DHT22;23980;51.902;12.832;2022-09-23T22:34:25;12.30;57.80
38167;DHT22;23980;51.902;12.832;2022-09-23T22:39:59;12.30;57.50
38167;DHT22;23980;51.902;12.832;2022-09-23T22:45:00;12.30;57.90
38167;DHT22;23980;51.902;12.832;2022-09-23T22:50:00;12.20;57.40
38167;DHT22;23980;51.902;12.832;2022-09-23T22:55:01;12.20;57.50
38167;DHT22;23980;51.902;12.832;2022-09-23T23:00:07;12.20;57.50
38167;DHT22;23980;51.902;12.832;2022-09-23T23:05:08;12.20;57.80
38167;DHT22;23980;51.902;12.832;2022-09-23T23:10:10;12.10;57.60
38167;DHT22;23980;51.902;12.832;2022-09-23T23:15:11;12.10;57.70
38167;DHT22;23980;51.902;12.832;2022-09-23T23:20:12;12.10;57.70
38167;DHT22;23980;51.902;12.832;2022-09-23T23:25:13;12.10;57.70
38167;DHT22;23980;51.902;12.832;2022-09-23T23:30:14;12.00;57.70
38167;DHT22;23980;51.902;12.832;2022-09-23T23:35:15;12.00;57.80
38167;DHT22;23980;51.902;12.832;2022-09-23T23:40:18;12.00;57.80
38167;DHT22;23980;51.902;12.832;2022-09-23T23:45:22;12.00;57.90
38167;DHT22;23980;51.902;12.832;2022-09-23T23:50:22;11.90;57.80
38167;DHT22;23980;51.902;12.832;2022-09-23T23:55:23;11.90;57.90
